Time;durP1;ratioP1;P1;durP2;ratioP2;P2;SDS_P1;SDS_P2;PMS_P1;PMS_P2;Temp;Humidity;BMP_temperature;BMP_pressure;BME280_temperature;BME280_humidity;BME280_pressure;Samples;Min_cycle;Max_cycle;Signal;HPM_P1;HPM_P2
2021/09/19 00:00:13;;;;;;;5.10;4.55;;;15.10;99.90;;;;;;6125717;23;20016;-65
2021/09/19 00:02:38;;;;;;;5.10;4.40;;;15.10;99.90;;;;;;6125393;23;20231;-65
2021/09/19 00:05:05;;;;;;;5.10;4.13;;;15.10;99.90;;;;;;6125738;23;20016;-65
2021/09/19 00:07:31;;;;;;;4.68;4.28;;;15.10;99.90;;;;;;6151513;23;20026;-65
2021/09/19 00:09:57;;;;;;;4.13;3.70;;;15.10;99.90;;;;;;6124238;23;20028;-65
2021/09/19 00:12:22;;;;;;;4.30;4.00;;;15.10;99.90;;;;;;6152660;23;20512;-65
2021/09/19 00:14:48;;;;;;;4.30;3.90;;;15.10;99.90;;;;;;6127233;23;20010;-65
2021/09/19 00:17:14;;;;;;;4.43;3.80;;;15.10;99.90;;;;;;6127099;23;20049;-66
2021/09/19 00:19:39;;;;;;;3.53;3.22;;;15.10;99.90;;;;;;6126738;23;20056;-65
2021/09/19 00:22:05;;;;;;;4.10;3.20;;;15.10;99.90;;;;;;6153957;23;20345;-65
2021/09/19 00:24:31;;;;;;;3.38;3.08;;;15.10;99.90;;;;;;6126937;23;20009;-66
2021/09/19 00:26:57;;;;;;;4.30;3.70;;;15.10;99.90;;;;;;6127039;23;20017;-65
2021/09/19 00:29:22;;;;;;;3.92;3.63;;;15.10;99.90;;;;;;6126647;23;20095;-65
2021/09/19 00:31:48;;;;;;;4.15;3.40;;;15.10;99.90;;;;;;6126639;23;20013;-65
2021/09/19 00:34:14;;;;;;;3.83;3.38;;;15.10;99.90;;;;;;6126368;23;20068;-66
2021/09/19 00:36:39;;;;;;;3.35;3.05;;;15.10;99.90;;;;;;6127433;23;20341;-66
2021/09/19 00:39:06;;;;;;;4.00;3.67;;;15.10;99.90;;;;;;6153005;23;20025;-66
2021/09/19 00:41:31;;;;;;;3.72;3.42;;;15.10;99.90;;;;;;6102294;23;20009;-65
2021/09/19 00:43:57;;;;;;;3.88;3.58;;;15.10;99.90;;;;;;6152588;23;20016;-65
2021/09/19 00:46:22;;;;;;;4.35;3.40;;;15.10;99.90;;;;;;6153626;23;20014;-66
2021/09/19 00:48:48;;;;;;;3.83;3.53;;;15.10;99.90;;;;;;6125869;23;20045;-66
2021/09/19 00:51:14;;;;;;;4.30;3.90;;;15.10;99.90;;;;;;6151951;23;20014;-66
2021/09/19 00:53:41;;;;;;;3.90;3.53;;;15.10;99.90;;;;;;6153778;23;20040;-66
2021/09/19 00:56:07;;;;;;;4.60;4.00;;;15.10;99.90;;;;;;6126197;23;20021;-65
2021/09/19 00:58:33;;;;;;;4.28;3.97;;;15.10;99.90;;;;;;6125573;23;20027;-66
2021/09/19 01:01:00;;;;;;;3.90;3.60;;;15.10;99.90;;;;;;6153126;23;20068;-66
2021/09/19 01:03:29;;;;;;;4.60;4.20;;;15.10;99.90;;;;;;6152986;23;20438;-65
2021/09/19 01:05:55;;;;;;;4.07;3.72;;;15.00;99.90;;;;;;6126057;23;20071;-66
2021/09/19 01:08:20;;;;;;;3.38;3.08;;;15.10;99.90;;;;;;6152501;23;20052;-66
2021/09/19 01:10:47;;;;;;;5.45;3.83;;;15.10;99.90;;;;;;6126218;23;20052;-65
2021/09/19 01:13:13;;;;;;;4.00;3.70;;;15.10;99.90;;;;;;6126244;23;20433;-65
2021/09/19 01:15:42;;;;;;;3.90;3.60;;;15.10;99.90;;;;;;6152722;23;20636;-66
2021/09/19 01:18:08;;;;;;;4.28;3.78;;;15.10;99.90;;;;;;6126465;23;20013;-65
2021/09/19 01:20:35;;;;;;;5.10;4.18;;;15.10;99.90;;;;;;6102273;23;20021;-66
2021/09/19 01:23:10;;;;;;;3.88;3.58;;;15.00;99.90;;;;;;6153251;23;20532;-66
2021/09/19 01:25:38;;;;;;;4.82;4.38;;;15.00;99.90;;;;;;6125627;23;20018;-65
2021/09/19 01:28:05;;;;;;;4.88;3.95;;;15.00;99.90;;;;;;6125984;23;20026;-66
2021/09/19 01:30:30;;;;;;;4.22;3.92;;;15.00;99.90;;;;;;6152514;23;20016;-65
2021/09/19 01:32:56;;;;;;;4.57;4.13;;;14.90;99.90;;;;;;6126759;23;20088;-66
2021/09/19 01:35:22;;;;;;;4.35;4.00;;;14.90;99.90;;;;;;6126383;23;20022;-66
2021/09/19 01:37:48;;;;;;;4.30;3.90;;;14.90;99.90;;;;;;6126767;23;20021;-65
2021/09/19 01:40:14;;;;;;;4.22;3.83;;;15.00;99.90;;;;;;6126087;23;20017;-65
2021/09/19 01:42:40;;;;;;;4.85;4.40;;;15.00;99.90;;;;;;6151831;23;20017;-65
2021/09/19 01:45:08;;;;;;;4.95;4.10;;;14.90;99.90;;;;;;6152515;23;20108;-65
2021/09/19 01:47:34;;;;;;;5.15;4.45;;;15.00;99.90;;;;;;6125909;23;20017;-66
2021/09/19 01:49:59;;;;;;;4.90;4.40;;;15.00;99.90;;;;;;6125624;23;20449;-66
2021/09/19 01:52:28;;;;;;;5.25;4.75;;;14.90;99.90;;;;;;6125681;23;20017;-65
2021/09/19 01:54:54;;;;;;;5.43;4.95;;;14.90;99.90;;;;;;6152784;23;20014;-65
2021/09/19 01:57:22;;;;;;;4.93;4.53;;;14.90;99.90;;;;;;6125798;23;20032;-66
2021/09/19 01:59:53;;;;;;;5.10;4.70;;;14.90;99.90;;;;;;6126421;23;20021;-66
2021/09/19 02:02:20;;;;;;;5.37;4.83;;;14.90;99.90;;;;;;6125435;23;20080;-66
2021/09/19 02:04:46;;;;;;;5.80;5.18;;;14.90;99.90;;;;;;6102076;23;20028;-66
2021/09/19 02:07:12;;;;;;;5.97;5.10;;;14.90;99.90;;;;;;6125652;23;20018;-66
2021/09/19 02:09:37;;;;;;;5.82;5.28;;;14.90;99.90;;;;;;6152027;23;20068;-66
2021/09/19 02:12:03;;;;;;;5.43;4.93;;;14.90;99.90;;;;;;6125771;23;20411;-66
2021/09/19 02:14:30;;;;;;;6.47;5.88;;;15.00;99.90;;;;;;6125906;23;20516;-65
2021/09/19 02:16:56;;;;;;;5.55;4.97;;;15.00;99.90;;;;;;6152154;23;20333;-65
2021/09/19 02:19:21;;;;;;;5.90;5.32;;;15.00;99.90;;;;;;6125469;23;20101;-66
2021/09/19 02:21:47;;;;;;;6.15;5.55;;;15.00;99.90;;;;;;6125855;23;20033;-66
2021/09/19 02:24:13;;;;;;;6.40;5.90;;;15.00;99.90;;;;;;6125827;23;20088;-65
2021/09/19 02:26:38;;;;;;;6.07;5.60;;;15.10;99.90;;;;;;6125579;23;20457;-65
2021/09/19 02:29:04;;;;;;;6.40;5.80;;;15.00;99.90;;;;;;6152196;23;20037;-66
2021/09/19 02:31:31;;;;;;;6.47;5.88;;;15.10;99.90;;;;;;6152511;23;20039;-66
2021/09/19 02:33:57;;;;;;;7.15;6.55;;;15.00;99.90;;;;;;6125438;23;20017;-65
2021/09/19 02:36:23;;;;;;;7.93;6.40;;;15.00;99.90;;;;;;6125906;23;20504;-65
2021/09/19 02:38:49;;;;;;;6.47;5.90;;;15.00;99.90;;;;;;6126066;23;20025;-65
2021/09/19 02:41:14;;;;;;;8.20;7.30;;;15.00;99.90;;;;;;6125396;23;20022;-66
2021/09/19 02:43:40;;;;;;;7.80;6.70;;;15.00;99.90;;;;;;6126086;23;20041;-65
2021/09/19 02:46:05;;;;;;;7.07;6.32;;;15.00;99.90;;;;;;6125395;23;20092;-66
2021/09/19 02:48:31;;;;;;;7.28;6.65;;;14.90;99.90;;;;;;6100764;23;20009;-65
2021/09/19 02:50:59;;;;;;;8.43;6.18;;;15.00;99.90;;;;;;6151488;23;20097;-65
2021/09/19 02:53:25;;;;;;;7.40;6.70;;;15.00;99.90;;;;;;6125241;23;20013;-65
2021/09/19 02:55:50;;;;;;;7.13;6.53;;;15.00;99.90;;;;;;6152205;23;20020;-65
2021/09/19 02:58:16;;;;;;;10.30;7.07;;;15.00;99.90;;;;;;6125799;23;20032;-65
2021/09/19 03:00:42;;;;;;;6.97;6.32;;;15.00;99.90;;;;;;6100920;23;20067;-65
2021/09/19 03:03:07;;;;;;;6.80;6.10;;;15.00;99.90;;;;;;6151567;23;20089;-65
2021/09/19 03:05:33;;;;;;;7.15;6.47;;;15.00;99.90;;;;;;6100832;23;20017;-66
2021/09/19 03:07:58;;;;;;;10.15;5.88;;;15.00;99.90;;;;;;6099415;23;20021;-65
2021/09/19 03:10:24;;;;;;;6.35;5.28;;;15.00;99.90;;;;;;6125293;23;20013;-65
2021/09/19 03:12:50;;;;;;;7.30;5.40;;;15.10;99.90;;;;;;6151188;23;20512;-65
2021/09/19 03:15:15;;;;;;;6.10;5.47;;;15.10;99.90;;;;;;6101403;23;20103;-66
2021/09/19 03:17:41;;;;;;;5.97;5.47;;;15.00;99.90;;;;;;6125168;23;20460;-65
2021/09/19 03:20:09;;;;;;;5.03;4.53;;;14.90;99.90;;;;;;6125376;23;20072;-66
2021/09/19 03:22:35;;;;;;;7.63;5.03;;;14.90;99.90;;;;;;6151923;23;20116;-65
2021/09/19 03:25:03;;;;;;;7.88;4.85;;;15.00;99.90;;;;;;6126055;23;20027;-66
2021/09/19 03:27:28;;;;;;;7.43;4.63;;;14.90;99.90;;;;;;6125495;23;20013;-66
2021/09/19 03:29:54;;;;;;;6.18;4.43;;;14.90;99.90;;;;;;6123762;23;20133;-65
2021/09/19 03:32:19;;;;;;;4.57;4.10;;;14.90;99.90;;;;;;6125540;23;20357;-65
2021/09/19 03:34:45;;;;;;;7.68;4.90;;;14.90;99.90;;;;;;6151195;23;20025;-65
2021/09/19 03:37:10;;;;;;;7.07;4.90;;;14.90;99.90;;;;;;6125077;23;20049;-66
2021/09/19 03:39:36;;;;;;;5.28;4.57;;;14.80;99.90;;;;;;6124937;23;20028;-65
2021/09/19 03:42:02;;;;;;;6.95;4.50;;;14.80;99.90;;;;;;6099886;23;20026;-65
2021/09/19 03:44:27;;;;;;;5.57;4.70;;;14.70;99.90;;;;;;6125599;23;20066;-66
2021/09/19 03:46:53;;;;;;;7.13;4.57;;;14.70;99.90;;;;;;6098384;23;20045;-66
2021/09/19 03:49:18;;;;;;;5.05;4.30;;;14.70;99.90;;;;;;6125444;23;20197;-65
2021/09/19 03:51:44;;;;;;;6.00;5.10;;;14.60;99.90;;;;;;6150638;23;20014;-65
2021/09/19 03:54:09;;;;;;;4.60;4.05;;;14.60;99.90;;;;;;6124413;23;20013;-65
2021/09/19 03:56:35;;;;;;;7.97;4.82;;;14.60;99.90;;;;;;6125222;23;20029;-66
2021/09/19 03:59:00;;;;;;;6.53;4.97;;;14.50;99.90;;;;;;6125592;23;20017;-66
2021/09/19 04:01:26;;;;;;;7.35;4.78;;;14.50;99.90;;;;;;6125204;23;20025;-66
2021/09/19 04:03:51;;;;;;;5.05;3.60;;;14.50;99.90;;;;;;6124334;23;20024;-66
2021/09/19 04:06:17;;;;;;;5.53;4.63;;;14.50;99.90;;;;;;6124957;23;20468;-66
2021/09/19 04:08:42;;;;;;;6.65;5.20;;;14.50;99.90;;;;;;6124900;23;20017;-65
2021/09/19 04:11:08;;;;;;;6.63;5.05;;;14.50;99.90;;;;;;6125316;23;20052;-66
2021/09/19 04:13:33;;;;;;;5.18;4.68;;;14.40;99.90;;;;;;6124324;23;20824;-65
2021/09/19 04:16:00;;;;;;;6.22;4.45;;;14.50;99.90;;;;;;6124779;23;20462;-66
2021/09/19 04:18:26;;;;;;;6.93;4.30;;;14.40;99.90;;;;;;6125081;23;20036;-66
2021/09/19 04:20:52;;;;;;;6.03;4.60;;;14.40;99.90;;;;;;6151218;23;20430;-65
2021/09/19 04:23:17;;;;;;;6.30;4.72;;;14.40;99.90;;;;;;6123628;23;20060;-65
2021/09/19 04:25:43;;;;;;;4.90;4.30;;;14.40;99.90;;;;;;6125051;23;20493;-65
2021/09/19 04:28:08;;;;;;;6.28;4.82;;;14.30;99.90;;;;;;6124916;23;20014;-65
2021/09/19 04:30:34;;;;;;;7.15;4.47;;;14.30;99.90;;;;;;6151488;23;20010;-65
2021/09/19 04:33:00;;;;;;;5.10;3.83;;;14.30;99.90;;;;;;6124171;23;20093;-65
2021/09/19 04:35:25;;;;;;;6.88;4.47;;;14.30;99.90;;;;;;6125629;23;20425;-65
2021/09/19 04:37:51;;;;;;;6.65;4.35;;;14.20;99.90;;;;;;6124350;23;20017;-65
2021/09/19 04:40:16;;;;;;;5.18;4.07;;;14.00;99.90;;;;;;6125098;23;20029;-65
2021/09/19 04:42:42;;;;;;;5.78;4.90;;;13.90;99.90;;;;;;6151365;23;20021;-66
2021/09/19 04:45:09;;;;;;;5.30;4.25;;;13.90;99.90;;;;;;6124624;23;20017;-65
2021/09/19 04:47:34;;;;;;;4.45;3.70;;;13.90;99.90;;;;;;6123464;23;20385;-65
2021/09/19 04:50:00;;;;;;;6.65;4.28;;;13.90;99.90;;;;;;6150634;23;20013;-65
2021/09/19 04:52:26;;;;;;;7.78;4.55;;;13.80;99.90;;;;;;6124421;23;20336;-65
2021/09/19 04:54:51;;;;;;;5.13;4.38;;;13.80;99.90;;;;;;6121890;23;20333;-65
2021/09/19 04:57:17;;;;;;;7.20;4.80;;;13.90;99.90;;;;;;6124474;23;20096;-65
2021/09/19 04:59:42;;;;;;;7.25;4.70;;;13.80;99.90;;;;;;6152313;23;20013;-66
2021/09/19 05:02:08;;;;;;;6.65;4.32;;;13.80;99.90;;;;;;6126568;23;20097;-65
2021/09/19 05:04:34;;;;;;;6.00;4.82;;;13.80;99.90;;;;;;6153715;23;20025;-65
2021/09/19 05:06:59;;;;;;;5.80;4.93;;;13.80;99.90;;;;;;6152150;23;20350;-66
2021/09/19 05:09:25;;;;;;;5.78;5.18;;;13.60;99.90;;;;;;6152850;23;20097;-65
2021/09/19 05:11:50;;;;;;;8.80;4.95;;;13.70;99.90;;;;;;6125546;23;20033;-65
2021/09/19 05:14:16;;;;;;;7.40;4.82;;;13.60;99.90;;;;;;6126677;23;20018;-65
2021/09/19 05:16:41;;;;;;;5.57;4.90;;;13.50;99.90;;;;;;6152084;23;20445;-65
2021/09/19 05:19:07;;;;;;;7.57;5.10;;;13.50;99.90;;;;;;6101742;23;20053;-73
2021/09/19 05:21:33;;;;;;;8.52;5.13;;;13.50;99.90;;;;;;6124730;23;20024;-73
2021/09/19 05:23:59;;;;;;;6.95;5.00;;;13.60;99.90;;;;;;6124142;23;20025;-73
2021/09/19 05:26:25;;;;;;;9.25;5.30;;;13.40;99.90;;;;;;6125891;23;20032;-73
2021/09/19 05:28:51;;;;;;;7.20;5.13;;;13.40;99.90;;;;;;6100273;23;20010;-73
2021/09/19 05:31:17;;;;;;;7.93;5.43;;;13.40;99.90;;;;;;6152545;23;20337;-73
2021/09/19 05:33:44;;;;;;;7.93;5.35;;;13.40;99.90;;;;;;6126518;23;20089;-72
2021/09/19 05:36:09;;;;;;;6.05;5.10;;;13.40;99.90;;;;;;6125938;23;20022;-72
2021/09/19 05:38:35;;;;;;;8.32;5.80;;;13.40;99.90;;;;;;6125860;23;20025;-72
2021/09/19 05:41:01;;;;;;;5.95;5.28;;;13.20;99.90;;;;;;6126649;23;20025;-72
2021/09/19 05:43:26;;;;;;;6.63;5.45;;;13.20;99.90;;;;;;6101531;23;20422;-72
2021/09/19 05:45:52;;;;;;;6.35;5.18;;;13.20;99.90;;;;;;6151743;23;20089;-72
2021/09/19 05:48:17;;;;;;;6.80;5.35;;;13.20;99.90;;;;;;6126817;23;20013;-72
2021/09/19 05:50:43;;;;;;;8.52;5.53;;;13.20;99.90;;;;;;6126749;23;20043;-72
2021/09/19 05:53:08;;;;;;;7.18;5.25;;;13.20;99.90;;;;;;6125749;23;20065;-72
2021/09/19 05:55:34;;;;;;;7.95;5.63;;;13.30;99.90;;;;;;6125344;23;20027;-72
2021/09/19 05:57:59;;;;;;;6.20;5.43;;;13.20;99.90;;;;;;6126800;23;20020;-73
2021/09/19 06:00:25;;;;;;;7.10;5.47;;;13.30;99.90;;;;;;6101228;23;20105;-72
2021/09/19 06:02:50;;;;;;;7.03;5.60;;;13.30;99.90;;;;;;6126655;23;20463;-72
2021/09/19 06:05:16;;;;;;;7.72;5.80;;;13.30;99.90;;;;;;6126043;23;20021;-72
2021/09/19 06:07:42;;;;;;;7.93;5.70;;;13.30;99.90;;;;;;6125326;23;20018;-72
2021/09/19 06:10:08;;;;;;;9.48;5.63;;;13.30;99.90;;;;;;6101227;23;20088;-72
2021/09/19 06:12:34;;;;;;;9.27;5.57;;;13.40;99.90;;;;;;6102431;23;20028;-73
2021/09/19 06:14:59;;;;;;;8.80;6.13;;;13.50;99.90;;;;;;6126701;23;20013;-72
2021/09/19 06:17:25;;;;;;;6.22;5.63;;;13.40;99.90;;;;;;6127084;23;20422;-73
2021/09/19 06:19:51;;;;;;;10.82;6.07;;;13.50;99.90;;;;;;6126766;23;20433;-73
2021/09/19 06:22:18;;;;;;;7.63;6.25;;;13.60;99.90;;;;;;6127010;23;20092;-73
2021/09/19 06:24:44;;;;;;;9.02;5.68;;;13.50;99.90;;;;;;6126333;23;20017;-72
2021/09/19 06:27:12;;;;;;;8.38;6.05;;;13.50;99.90;;;;;;6153163;23;20020;-73
2021/09/19 06:29:38;;;;;;;7.50;6.10;;;13.60;99.90;;;;;;6126775;23;20014;-73
2021/09/19 06:32:04;;;;;;;8.23;5.85;;;13.50;99.90;;;;;;6126119;23;20057;-73
2021/09/19 06:34:30;;;;;;;6.60;5.70;;;13.50;99.90;;;;;;6124360;23;20032;-73
2021/09/19 06:36:55;;;;;;;8.52;7.43;;;13.60;99.90;;;;;;6125546;23;20017;-73
2021/09/19 06:39:21;;;;;;;9.75;5.30;;;13.60;99.90;;;;;;6125581;23;20389;-72
2021/09/19 06:41:50;;;;;;;7.43;5.78;;;13.70;99.90;;;;;;6101302;23;20064;-72
2021/09/19 06:44:17;;;;;;;7.20;6.00;;;13.70;99.90;;;;;;6125604;23;20064;-73
2021/09/19 06:46:42;;;;;;;7.15;5.63;;;13.70;99.90;;;;;;6099830;23;20010;-73
2021/09/19 06:49:08;;;;;;;9.35;6.45;;;13.70;99.90;;;;;;6151037;23;20015;-73
2021/09/19 06:51:33;;;;;;;9.20;6.53;;;13.90;99.90;;;;;;6101506;23;20017;-73
2021/09/19 06:53:59;;;;;;;7.88;6.13;;;13.90;99.90;;;;;;6125701;23;20017;-73
2021/09/19 06:56:25;;;;;;;9.38;5.75;;;14.00;99.90;;;;;;6125240;23;20025;-73
2021/09/19 06:58:50;;;;;;;6.88;6.10;;;14.10;99.90;;;;;;6126240;23;20044;-65
2021/09/19 07:01:16;;;;;;;6.22;5.38;;;14.10;99.90;;;;;;6101796;23;20352;-65
2021/09/19 07:03:43;;;;;;;12.63;7.15;;;14.30;99.90;;;;;;6125853;23;20513;-65
2021/09/19 07:06:09;;;;;;;6.53;5.72;;;14.40;99.90;;;;;;6100310;23;20025;-66
2021/09/19 07:08:34;;;;;;;7.38;6.68;;;14.50;99.90;;;;;;6125432;23;20085;-66
2021/09/19 07:11:01;;;;;;;7.63;6.35;;;14.60;99.90;;;;;;6124740;23;20575;-65
2021/09/19 07:13:27;;;;;;;7.88;6.97;;;15.00;99.90;;;;;;6152711;23;20022;-65
2021/09/19 07:15:53;;;;;;;7.30;6.15;;;15.40;99.90;;;;;;6152633;23;20025;-65
2021/09/19 07:18:22;;;;;;;6.93;6.22;;;15.70;99.90;;;;;;6126135;23;20017;-65
2021/09/19 07:20:49;;;;;;;7.25;6.55;;;16.00;99.90;;;;;;6126020;23;20021;-65
2021/09/19 07:23:15;;;;;;;7.35;6.13;;;16.40;99.90;;;;;;6126205;23;20089;-65
2021/09/19 07:25:41;;;;;;;9.45;6.20;;;16.70;99.90;;;;;;6126092;23;20448;-65
2021/09/19 07:28:07;;;;;;;7.70;6.47;;;16.80;99.90;;;;;;6125272;23;20089;-66
2021/09/19 07:30:34;;;;;;;7.35;6.60;;;16.80;99.90;;;;;;6152507;23;20013;-66
2021/09/19 07:33:00;;;;;;;7.68;6.47;;;16.80;99.90;;;;;;6152208;23;20523;-65
2021/09/19 07:35:26;;;;;;;7.22;6.55;;;16.70;99.90;;;;;;6101029;23;20013;-65
2021/09/19 07:37:52;;;;;;;8.55;6.78;;;16.70;99.90;;;;;;6125783;23;20014;-65
2021/09/19 07:40:18;;;;;;;8.45;6.47;;;16.70;99.90;;;;;;6101440;23;20013;-65
2021/09/19 07:42:44;;;;;;;7.55;6.85;;;16.70;99.90;;;;;;6151908;23;20017;-65
2021/09/19 07:45:11;;;;;;;7.40;6.43;;;16.80;99.90;;;;;;6124950;23;20378;-65
2021/09/19 07:47:37;;;;;;;6.78;5.97;;;16.90;99.90;;;;;;6125275;23;20040;-65
2021/09/19 07:50:04;;;;;;;8.00;5.57;;;17.10;99.90;;;;;;6151752;23;20389;-65
2021/09/19 07:52:29;;;;;;;6.85;6.25;;;17.10;99.90;;;;;;6125774;23;20048;-66
2021/09/19 07:54:55;;;;;;;6.85;5.75;;;17.10;99.90;;;;;;6100680;23;20013;-66
2021/09/19 07:57:21;;;;;;;6.80;5.97;;;17.10;99.90;;;;;;6124935;23;20064;-65
2021/09/19 07:59:49;;;;;;;7.35;6.28;;;17.10;99.90;;;;;;6125775;23;20028;-65
2021/09/19 08:02:14;;;;;;;8.02;7.05;;;16.90;99.90;;;;;;6124466;23;20017;-66
2021/09/19 08:04:40;;;;;;;8.00;6.22;;;16.90;99.90;;;;;;6124476;23;20358;-66
2021/09/19 08:07:05;;;;;;;6.80;5.55;;;16.80;99.90;;;;;;6149256;23;20017;-66
2021/09/19 08:09:31;;;;;;;6.82;6.13;;;17.00;99.90;;;;;;6147390;23;20013;-66
2021/09/19 08:11:57;;;;;;;6.70;5.35;;;17.00;99.90;;;;;;6148169;23;20020;-66
2021/09/19 08:14:22;;;;;;;7.82;5.45;;;17.00;99.90;;;;;;6124025;23;20056;-66
2021/09/19 08:16:48;;;;;;;7.63;5.88;;;17.20;99.90;;;;;;6150397;23;20104;-66
2021/09/19 08:19:14;;;;;;;5.65;5.15;;;17.10;99.90;;;;;;6151020;23;20014;-66
2021/09/19 08:21:39;;;;;;;6.30;5.25;;;17.30;99.90;;;;;;6149911;23;20017;-63
2021/09/19 08:24:07;;;;;;;8.20;5.55;;;17.50;99.90;;;;;;6149483;23;20204;-65
2021/09/19 08:26:34;;;;;;;7.20;5.25;;;17.50;99.90;;;;;;6151016;23;20010;-65
2021/09/19 08:28:59;;;;;;;8.75;5.90;;;17.50;99.90;;;;;;6150598;23;20117;-65
2021/09/19 08:31:26;;;;;;;8.32;5.22;;;17.50;99.90;;;;;;6150380;23;20445;-65
2021/09/19 08:33:52;;;;;;;5.97;5.38;;;17.70;99.90;;;;;;6151090;23;20009;-65
2021/09/19 08:36:18;;;;;;;7.28;5.65;;;17.40;99.90;;;;;;6153677;23;20049;-65
2021/09/19 08:38:44;;;;;;;8.25;5.47;;;17.70;99.90;;;;;;6152939;23;20029;-65
2021/09/19 08:41:09;;;;;;;7.53;5.95;;;17.70;99.90;;;;;;6102853;23;20377;-65
2021/09/19 08:43:35;;;;;;;8.18;6.03;;;17.90;99.90;;;;;;6151543;23;20056;-66
2021/09/19 08:46:01;;;;;;;6.65;5.30;;;17.90;99.90;;;;;;6126883;23;20372;-65
2021/09/19 08:48:28;;;;;;;6.63;5.97;;;18.00;99.90;;;;;;6151664;23;20017;-65
2021/09/19 08:50:54;;;;;;;8.43;5.25;;;17.70;99.90;;;;;;6152155;23;20009;-65
2021/09/19 08:53:21;;;;;;;6.43;5.68;;;17.70;99.90;;;;;;6152065;23;20535;-65
2021/09/19 08:55:47;;;;;;;6.18;5.60;;;17.80;99.90;;;;;;6126905;23;20013;-65
2021/09/19 08:58:13;;;;;;;7.20;5.80;;;17.70;99.90;;;;;;6125158;23;20009;-65
2021/09/19 09:00:49;;;;;;;7.00;5.70;;;17.50;99.90;;;;;;6152633;23;20250;-65
2021/09/19 09:03:22;;;;;;;7.70;6.03;;;17.60;99.90;;;;;;6151172;23;20009;-65
2021/09/19 09:06:05;;;;;;;7.82;5.70;;;17.50;99.90;;;;;;6152587;23;20010;-65
2021/09/19 09:08:34;;;;;;;7.82;5.93;;;17.70;99.90;;;;;;6151798;23;20084;-65
2021/09/19 09:11:02;;;;;;;8.15;6.22;;;17.50;99.90;;;;;;6152682;23;20010;-66
2021/09/19 09:13:30;;;;;;;6.40;5.80;;;17.40;99.90;;;;;;6125674;23;20013;-65
2021/09/19 09:16:14;;;;;;;6.95;5.82;;;17.60;99.90;;;;;;6151097;23;20079;-65
2021/09/19 09:18:52;;;;;;;5.82;5.32;;;17.70;99.90;;;;;;6125511;23;20018;-66
2021/09/19 09:21:23;;;;;;;8.27;5.95;;;17.90;99.90;;;;;;6151964;23;20028;-65
2021/09/19 09:23:52;;;;;;;7.72;5.80;;;17.90;99.90;;;;;;6125543;23;20033;-66
2021/09/19 09:26:20;;;;;;;5.70;5.10;;;18.00;99.90;;;;;;6153081;23;20121;-66
2021/09/19 09:28:54;;;;;;;7.40;5.40;;;17.90;99.90;;;;;;6151681;23;20671;-65
2021/09/19 09:31:27;;;;;;;6.22;5.53;;;18.20;99.90;;;;;;6152939;23;20307;-65
2021/09/19 09:34:07;;;;;;;7.28;5.45;;;18.30;99.90;;;;;;6124940;23;20337;-66
2021/09/19 09:36:35;;;;;;;8.63;6.05;;;18.10;99.90;;;;;;6151725;23;20024;-65
2021/09/19 09:39:18;;;;;;;6.22;5.32;;;18.10;99.90;;;;;;6124661;23;20068;-65
2021/09/19 09:41:44;;;;;;;7.05;5.78;;;18.00;99.90;;;;;;6151277;23;20010;-65
2021/09/19 09:44:39;;;;;;;7.90;4.95;;;18.00;99.90;;;;;;6152177;23;20326;-66
2021/09/19 09:47:12;;;;;;;7.07;5.85;;;18.30;99.90;;;;;;6125877;23;20021;-65
2021/09/19 09:49:49;;;;;;;6.60;5.50;;;18.30;99.90;;;;;;6152388;23;20401;-65
2021/09/19 09:52:28;;;;;;;5.80;5.20;;;18.50;99.90;;;;;;6152005;23;20013;-65
2021/09/19 09:54:58;;;;;;;6.50;5.55;;;18.40;99.90;;;;;;6125461;23;20100;-65
2021/09/19 09:57:36;;;;;;;6.17;5.00;;;18.50;99.90;;;;;;6151071;23;20112;-66
2021/09/19 10:00:17;;;;;;;5.55;4.93;;;18.70;99.90;;;;;;6124355;23;20028;-66
2021/09/19 10:02:46;;;;;;;5.97;5.38;;;19.00;99.90;;;;;;6125542;23;20017;-65
2021/09/19 10:05:13;;;;;;;5.38;4.63;;;18.90;99.90;;;;;;6125694;23;20017;-65
2021/09/19 10:07:40;;;;;;;6.70;4.75;;;18.50;99.90;;;;;;6125805;23;20018;-65
2021/09/19 10:10:09;;;;;;;7.18;4.53;;;18.70;99.90;;;;;;6151962;23;20088;-65
2021/09/19 10:12:35;;;;;;;6.20;4.78;;;18.70;99.90;;;;;;6125074;23;20449;-65
2021/09/19 10:15:01;;;;;;;6.13;4.60;;;18.60;99.90;;;;;;6151981;23;20063;-65
2021/09/19 10:17:31;;;;;;;9.75;5.32;;;18.40;99.90;;;;;;6152821;23;20025;-66
2021/09/19 10:19:58;;;;;;;5.68;5.05;;;18.40;99.90;;;;;;6152503;23;20009;-67
2021/09/19 10:22:32;;;;;;;5.78;4.40;;;18.50;99.90;;;;;;6125449;23;20029;-65
2021/09/19 10:24:58;;;;;;;5.82;4.85;;;18.50;99.90;;;;;;6152768;23;20108;-65
2021/09/19 10:27:30;;;;;;;6.85;4.35;;;18.50;99.90;;;;;;6150401;23;20060;-62
2021/09/19 10:30:14;;;;;;;;;;;18.20;99.90;;;;;;6153155;23;20056;-62
2021/09/19 10:32:46;;;;;;;5.85;5.32;;;18.10;99.90;;;;;;6151817;23;19943;-62
2021/09/19 10:35:26;;;;;;;6.22;5.18;;;18.10;99.90;;;;;;6153032;23;20014;-63
2021/09/19 10:38:00;;;;;;;6.00;5.13;;;18.00;99.90;;;;;;6125697;23;20026;-63
2021/09/19 10:40:38;;;;;;;6.38;5.43;;;17.90;99.90;;;;;;6125949;23;20017;-63
2021/09/19 10:43:47;;;;;;;5.63;4.97;;;18.10;99.90;;;;;;6124507;23;20528;-63
2021/09/19 10:46:35;;;;;;;7.18;5.53;;;18.10;99.90;;;;;;6124275;23;20053;-63
2021/09/19 10:49:19;;;;;;;7.65;5.22;;;18.10;99.90;;;;;;6125357;23;20385;-64
2021/09/19 10:52:00;;;;;;;6.75;5.32;;;18.40;99.90;;;;;;6126002;23;20064;-65
2021/09/19 10:54:49;;;;;;;6.28;5.57;;;18.50;99.90;;;;;;6125533;23;20361;-65
2021/09/19 10:57:21;;;;;;;6.50;5.30;;;18.70;99.90;;;;;;6125368;23;20697;-65
2021/09/19 11:00:11;;;;;;;6.55;5.40;;;18.80;99.90;;;;;;6151223;23;20025;-65
2021/09/19 11:02:40;;;;;;;6.53;5.38;;;18.90;99.90;;;;;;6150707;23;20032;-65
2021/09/19 11:05:35;;;;;;;5.72;5.00;;;18.80;99.90;;;;;;6150916;23;20023;-65
2021/09/19 11:08:07;;;;;;;7.53;5.82;;;18.80;99.90;;;;;;6150891;23;20067;-65
2021/09/19 11:10:55;;;;;;;5.57;5.03;;;18.80;99.90;;;;;;6151017;23;20512;-64
2021/09/19 11:13:25;;;;;;;7.93;5.15;;;19.00;99.90;;;;;;6150537;23;20048;-65
2021/09/19 11:16:02;;;;;;;5.65;5.05;;;19.20;99.90;;;;;;6125783;23;20453;-65
2021/09/19 11:18:37;;;;;;;5.72;5.13;;;19.20;99.90;;;;;;6150634;23;20053;-63
2021/09/19 11:21:11;;;;;;;5.65;5.13;;;19.30;99.90;;;;;;6150761;23;20017;-62
2021/09/19 11:23:59;;;;;;;5.60;4.63;;;19.30;99.90;;;;;;6151475;23;20598;-63
2021/09/19 11:26:26;;;;;;;5.35;4.68;;;19.20;99.90;;;;;;6151549;23;20021;-63
2021/09/19 11:28:58;;;;;;;6.90;5.03;;;19.40;99.90;;;;;;6151751;23;20024;-62
2021/09/19 11:31:24;;;;;;;5.28;4.57;;;19.40;99.50;;;;;;6152258;23;20040;-63
2021/09/19 11:33:50;;;;;;;6.72;4.85;;;19.50;99.90;;;;;;6151301;23;20006;-65
2021/09/19 11:36:20;;;;;;;5.78;4.65;;;19.50;99.90;;;;;;6126142;23;20437;-65
2021/09/19 11:38:52;;;;;;;5.25;4.35;;;19.40;99.90;;;;;;6151698;23;20446;-63
2021/09/19 11:41:19;;;;;;;5.20;4.25;;;19.40;99.90;;;;;;6151989;23;20080;-63
2021/09/19 11:43:47;;;;;;;6.20;4.10;;;19.60;99.90;;;;;;6151073;23;20017;-63
2021/09/19 11:46:15;;;;;;;4.32;3.58;;;19.60;99.00;;;;;;6150257;23;20520;-63
2021/09/19 11:48:41;;;;;;;4.70;3.58;;;19.50;99.40;;;;;;6149694;23;20022;-63
2021/09/19 11:51:09;;;;;;;5.10;3.83;;;19.40;99.90;;;;;;6123864;23;20383;-63
2021/09/19 11:53:35;;;;;;;4.25;3.85;;;19.40;99.90;;;;;;6150644;23;20014;-63
2021/09/19 11:56:03;;;;;;;4.68;4.28;;;19.10;99.90;;;;;;6124807;23;20014;-65
2021/09/19 11:58:30;;;;;;;4.38;3.80;;;19.10;99.90;;;;;;6100684;23;20020;-65
2021/09/19 12:01:00;;;;;;;4.35;3.67;;;19.10;99.90;;;;;;6123677;23;20099;-65
2021/09/19 12:03:27;;;;;;;4.25;3.80;;;19.20;99.90;;;;;;6124816;23;20346;-64
2021/09/19 12:05:55;;;;;;;8.57;4.45;;;19.30;99.90;;;;;;6124250;23;20068;-65
2021/09/19 12:08:22;;;;;;;4.15;3.75;;;19.30;99.90;;;;;;6150263;23;20333;-65
2021/09/19 12:10:49;;;;;;;5.55;4.00;;;19.20;99.90;;;;;;6150944;23;20457;-65
2021/09/19 12:13:21;;;;;;;4.10;3.78;;;19.10;99.90;;;;;;6150695;23;20013;-63
2021/09/19 12:16:10;;;;;;;4.43;3.53;;;18.90;99.90;;;;;;6151554;23;20025;-63
2021/09/19 12:18:44;;;;;;;4.10;3.70;;;19.00;99.90;;;;;;6151584;23;20583;-64
2021/09/19 12:21:12;;;;;;;4.32;3.30;;;18.90;99.90;;;;;;6125266;23;20084;-63
2021/09/19 12:23:44;;;;;;;6.28;3.38;;;18.90;99.90;;;;;;6151772;23;20085;-64
2021/09/19 12:26:14;;;;;;;;;;;19.20;99.90;;;;;;6152506;23;20028;-64
2021/09/19 12:28:42;;;;;;;4.00;3.50;;;19.00;99.90;;;;;;6124969;23;20225;-64
2021/09/19 12:31:08;;;;;;;7.10;3.13;;;19.20;99.90;;;;;;6151472;23;20089;-64
2021/09/19 12:33:49;;;;;;;5.18;3.15;;;19.20;99.90;;;;;;6124617;23;20049;-64
2021/09/19 12:36:15;;;;;;;8.10;4.90;;;19.20;99.90;;;;;;6151187;23;20453;-64
2021/09/19 12:38:44;;;;;;;7.82;4.63;;;18.90;99.90;;;;;;6125972;23;20053;-64
2021/09/19 12:41:13;;;;;;;8.15;4.45;;;19.10;99.90;;;;;;6125411;23;20448;-63
2021/09/19 12:43:41;;;;;;;5.53;4.50;;;19.20;99.90;;;;;;6152127;23;20017;-64
2021/09/19 12:46:12;;;;;;;4.20;3.80;;;19.10;99.90;;;;;;6150827;23;20099;-64
2021/09/19 12:48:37;;;;;;;4.97;4.00;;;19.00;99.90;;;;;;6152177;23;20032;-64
2021/09/19 12:51:04;;;;;;;4.10;3.70;;;19.00;99.90;;;;;;6151574;23;20437;-64